Decoded Metar for DAUE (EL GOLEA in ALGERIA) (IATA:ELG) | Meteo·Mobile Aviation Weather
aviador You're here:

DAUE Decoded Metar

EL GOLEA in ALGERIA
Report Time2019-02-18 10:00:00
UTC Time2019-02-18 10:26:58
Flight Rules vfr VFR
Wind080° at 10 kt
W.Decomp.*RWY 10: 9.4 kt HW 3.4 kt LCW
RWY 36: 1.7 kt HW 9.8 kt RCW
W.Rank080° ranks 6
Current wind is above 080° avg. (8.7)
Visibility9999 m
Phenomena:N/A
Clouds:N/A
Expected CloudBase > 4,800 ft AGL from Temp-Dew spread
CeilingNone
Temp12°C (ISA -0)
Dew Point00°C (44% RH)
AAT6.4°C
QNH1022 hPa
Density Alt1,037 ft
Elevation1,302 ft
Report Wrong Elevation
Raw Report
METAR DAUE 181000Z 08010KT CAVOK 12/00 Q1022=

Extra information for DAUE:More info

Metar Taf Metar & Taf Last 4 Metars F.Rules Stats Wind Profile Meteogram Temp Stats Airport Information Weather charts Add Link Nearby VenuesMetar ALERT Operation Metar Decoded Social comments